sensor_id;sensor_type;location;lat;lon;timestamp;P1;durP1;ratioP1;P2;durP2;ratioP2
39434;SDS011;30098;51.880;-0.518;2022-10-17T00:00:50;1.65;;;0.93;;
39434;SDS011;30098;51.880;-0.518;2022-10-17T00:03:15;1.52;;;0.70;;
39434;SDS011;30098;51.880;-0.518;2022-10-17T00:05:42;1.30;;;0.82;;
39434;SDS011;30098;51.880;-0.518;2022-10-17T00:08:09;1.63;;;0.68;;
39434;SDS011;30098;51.880;-0.518;2022-10-17T00:10:35;1.75;;;0.65;;
39434;SDS011;30098;51.880;-0.518;2022-10-17T00:13:01;2.10;;;0.80;;
39434;SDS011;30098;51.880;-0.518;2022-10-17T00:15:28;1.13;;;0.63;;
39434;SDS011;30098;51.880;-0.518;2022-10-17T00:17:55;1.52;;;0.60;;
39434;SDS011;30098;51.880;-0.518;2022-10-17T00:20:20;1.40;;;0.70;;
39434;SDS011;30098;51.880;-0.518;2022-10-17T00:22:46;1.65;;;0.80;;
39434;SDS011;30098;51.880;-0.518;2022-10-17T00:25:11;1.77;;;0.70;;
39434;SDS011;30098;51.880;-0.518;2022-10-17T00:27:37;1.30;;;0.65;;
39434;SDS011;30098;51.880;-0.518;2022-10-17T00:30:04;1.40;;;0.70;;
39434;SDS011;30098;51.880;-0.518;2022-10-17T00:32:31;1.48;;;0.70;;
39434;SDS011;30098;51.880;-0.518;2022-10-17T00:34:56;1.10;;;0.80;;
39434;SDS011;30098;51.880;-0.518;2022-10-17T00:37:23;1.45;;;0.63;;
39434;SDS011;30098;51.880;-0.518;2022-10-17T00:39:48;1.67;;;0.82;;
39434;SDS011;30098;51.880;-0.518;2022-10-17T00:42:14;1.23;;;0.70;;
39434;SDS011;30098;51.880;-0.518;2022-10-17T00:47:10;1.13;;;0.70;;
39434;SDS011;30098;51.880;-0.518;2022-10-17T00:49:38;1.70;;;0.80;;
39434;SDS011;30098;51.880;-0.518;2022-10-17T00:52:09;1.85;;;0.70;;
39434;SDS011;30098;51.880;-0.518;2022-10-17T00:54:40;1.98;;;0.75;;
39434;SDS011;30098;51.880;-0.518;2022-10-17T00:57:10;1.63;;;0.75;;
39434;SDS011;30098;51.880;-0.518;2022-10-17T00:59:36;1.83;;;0.80;;
39434;SDS011;30098;51.880;-0.518;2022-10-17T01:02:08;1.05;;;0.70;;
39434;SDS011;30098;51.880;-0.518;2022-10-17T01:04:36;1.75;;;0.68;;
39434;SDS011;30098;51.880;-0.518;2022-10-17T01:07:03;1.95;;;0.70;;
39434;SDS011;30098;51.880;-0.518;2022-10-17T01:09:28;1.42;;;0.80;;
39434;SDS011;30098;51.880;-0.518;2022-10-17T01:20:51;1.85;;;0.88;;
39434;SDS011;30098;51.880;-0.518;2022-10-17T01:28:58;1.30;;;0.70;;
39434;SDS011;30098;51.880;-0.518;2022-10-17T01:37:27;0.90;;;0.60;;
39434;SDS011;30098;51.880;-0.518;2022-10-17T01:40:02;1.65;;;0.60;;
39434;SDS011;30098;51.880;-0.518;2022-10-17T01:45:20;1.42;;;0.80;;
39434;SDS011;30098;51.880;-0.518;2022-10-17T01:48:16;1.77;;;0.70;;
39434;SDS011;30098;51.880;-0.518;2022-10-17T01:53:34;1.98;;;0.95;;
39434;SDS011;30098;51.880;-0.518;2022-10-17T01:56:04;1.30;;;0.70;;
39434;SDS011;30098;51.880;-0.518;2022-10-17T01:58:33;0.93;;;0.50;;
39434;SDS011;30098;51.880;-0.518;2022-10-17T02:01:04;1.40;;;0.63;;
39434;SDS011;30098;51.880;-0.518;2022-10-17T02:03:32;1.05;;;0.60;;
39434;SDS011;30098;51.880;-0.518;2022-10-17T02:05:59;1.35;;;0.60;;
39434;SDS011;30098;51.880;-0.518;2022-10-17T02:08:28;0.93;;;0.60;;
39434;SDS011;30098;51.880;-0.518;2022-10-17T02:11:10;1.30;;;0.60;;
39434;SDS011;30098;51.880;-0.518;2022-10-17T02:22:09;1.52;;;0.73;;
39434;SDS011;30098;51.880;-0.518;2022-10-17T02:28:00;1.60;;;0.70;;
39434;SDS011;30098;51.880;-0.518;2022-10-17T02:33:44;1.38;;;0.70;;
39434;SDS011;30098;51.880;-0.518;2022-10-17T02:36:16;1.10;;;0.60;;
39434;SDS011;30098;51.880;-0.518;2022-10-17T02:38:54;1.88;;;0.80;;
39434;SDS011;30098;51.880;-0.518;2022-10-17T02:41:22;2.17;;;0.80;;
39434;SDS011;30098;51.880;-0.518;2022-10-17T02:43:48;1.10;;;0.50;;
39434;SDS011;30098;51.880;-0.518;2022-10-17T02:46:17;0.93;;;0.50;;
39434;SDS011;30098;51.880;-0.518;2022-10-17T02:48:47;1.47;;;0.73;;
39434;SDS011;30098;51.880;-0.518;2022-10-17T02:54:21;2.00;;;0.82;;
39434;SDS011;30098;51.880;-0.518;2022-10-17T02:57:10;1.50;;;0.50;;
39434;SDS011;30098;51.880;-0.518;2022-10-17T02:59:38;1.13;;;0.67;;
39434;SDS011;30098;51.880;-0.518;2022-10-17T03:02:05;1.10;;;0.60;;
39434;SDS011;30098;51.880;-0.518;2022-10-17T03:04:32;0.98;;;0.55;;
39434;SDS011;30098;51.880;-0.518;2022-10-17T03:06:58;1.85;;;0.73;;
39434;SDS011;30098;51.880;-0.518;2022-10-17T03:09:24;1.27;;;0.60;;
39434;SDS011;30098;51.880;-0.518;2022-10-17T03:11:49;1.10;;;0.60;;
39434;SDS011;30098;51.880;-0.518;2022-10-17T03:14:15;2.00;;;0.95;;
39434;SDS011;30098;51.880;-0.518;2022-10-17T03:16:40;1.45;;;0.70;;
39434;SDS011;30098;51.880;-0.518;2022-10-17T03:19:06;0.98;;;0.63;;
39434;SDS011;30098;51.880;-0.518;2022-10-17T03:21:32;1.33;;;0.63;;
39434;SDS011;30098;51.880;-0.518;2022-10-17T03:23:57;1.27;;;0.60;;
39434;SDS011;30098;51.880;-0.518;2022-10-17T03:26:23;0.98;;;0.60;;
39434;SDS011;30098;51.880;-0.518;2022-10-17T03:28:48;1.40;;;0.60;;
39434;SDS011;30098;51.880;-0.518;2022-10-17T03:31:15;1.80;;;0.70;;
39434;SDS011;30098;51.880;-0.518;2022-10-17T03:33:41;1.73;;;0.50;;
39434;SDS011;30098;51.880;-0.518;2022-10-17T03:36:07;0.93;;;0.57;;
39434;SDS011;30098;51.880;-0.518;2022-10-17T03:38:37;1.10;;;0.70;;
39434;SDS011;30098;51.880;-0.518;2022-10-17T03:41:03;1.65;;;0.60;;
39434;SDS011;30098;51.880;-0.518;2022-10-17T03:43:29;1.88;;;0.65;;
39434;SDS011;30098;51.880;-0.518;2022-10-17T03:45:58;1.48;;;0.52;;
39434;SDS011;30098;51.880;-0.518;2022-10-17T03:48:24;1.42;;;0.80;;
39434;SDS011;30098;51.880;-0.518;2022-10-17T03:50:51;1.50;;;0.60;;
39434;SDS011;30098;51.880;-0.518;2022-10-17T03:53:16;1.50;;;0.70;;
39434;SDS011;30098;51.880;-0.518;2022-10-17T03:55:42;1.88;;;0.70;;
39434;SDS011;30098;51.880;-0.518;2022-10-17T03:58:08;1.90;;;0.52;;
39434;SDS011;30098;51.880;-0.518;2022-10-17T04:00:36;1.60;;;0.70;;
39434;SDS011;30098;51.880;-0.518;2022-10-17T04:03:02;1.13;;;0.65;;
39434;SDS011;30098;51.880;-0.518;2022-10-17T04:05:27;1.08;;;0.50;;
39434;SDS011;30098;51.880;-0.518;2022-10-17T04:07:53;1.48;;;0.60;;
39434;SDS011;30098;51.880;-0.518;2022-10-17T04:10:18;1.50;;;0.85;;
39434;SDS011;30098;51.880;-0.518;2022-10-17T04:12:44;2.10;;;0.75;;
39434;SDS011;30098;51.880;-0.518;2022-10-17T04:15:09;1.55;;;0.70;;
39434;SDS011;30098;51.880;-0.518;2022-10-17T04:17:35;0.70;;;0.50;;
39434;SDS011;30098;51.880;-0.518;2022-10-17T04:20:00;1.38;;;0.60;;
39434;SDS011;30098;51.880;-0.518;2022-10-17T04:22:26;1.40;;;0.60;;
39434;SDS011;30098;51.880;-0.518;2022-10-17T04:24:51;1.83;;;0.70;;
39434;SDS011;30098;51.880;-0.518;2022-10-17T04:27:17;1.77;;;0.80;;
39434;SDS011;30098;51.880;-0.518;2022-10-17T04:29:42;1.17;;;0.63;;
39434;SDS011;30098;51.880;-0.518;2022-10-17T04:32:08;1.33;;;0.55;;
39434;SDS011;30098;51.880;-0.518;2022-10-17T04:34:34;1.17;;;0.60;;
39434;SDS011;30098;51.880;-0.518;2022-10-17T04:37:00;2.10;;;0.80;;
39434;SDS011;30098;51.880;-0.518;2022-10-17T04:39:25;1.15;;;0.68;;
39434;SDS011;30098;51.880;-0.518;2022-10-17T04:41:51;1.25;;;0.70;;
39434;SDS011;30098;51.880;-0.518;2022-10-17T04:44:16;1.70;;;0.68;;
39434;SDS011;30098;51.880;-0.518;2022-10-17T04:46:42;1.88;;;0.70;;
39434;SDS011;30098;51.880;-0.518;2022-10-17T04:49:07;1.77;;;0.70;;
39434;SDS011;30098;51.880;-0.518;2022-10-17T04:51:33;0.85;;;0.50;;
39434;SDS011;30098;51.880;-0.518;2022-10-17T04:53:58;1.35;;;0.60;;
39434;SDS011;30098;51.880;-0.518;2022-10-17T04:56:24;1.27;;;0.60;;
39434;SDS011;30098;51.880;-0.518;2022-10-17T04:58:50;1.85;;;0.60;;
39434;SDS011;30098;51.880;-0.518;2022-10-17T05:01:17;1.17;;;0.60;;
39434;SDS011;30098;51.880;-0.518;2022-10-17T05:03:46;1.58;;;0.80;;
39434;SDS011;30098;51.880;-0.518;2022-10-17T05:06:13;1.80;;;0.70;;
39434;SDS011;30098;51.880;-0.518;2022-10-17T05:08:41;1.73;;;0.60;;
39434;SDS011;30098;51.880;-0.518;2022-10-17T05:13:41;2.10;;;0.70;;
39434;SDS011;30098;51.880;-0.518;2022-10-17T05:16:06;1.38;;;0.70;;
39434;SDS011;30098;51.880;-0.518;2022-10-17T05:18:31;1.63;;;0.75;;
39434;SDS011;30098;51.880;-0.518;2022-10-17T05:20:57;1.77;;;0.70;;
39434;SDS011;30098;51.880;-0.518;2022-10-17T05:23:22;0.88;;;0.50;;
39434;SDS011;30098;51.880;-0.518;2022-10-17T05:25:52;2.00;;;0.80;;
39434;SDS011;30098;51.880;-0.518;2022-10-17T05:28:18;1.85;;;0.70;;
39434;SDS011;30098;51.880;-0.518;2022-10-17T05:30:44;1.50;;;0.70;;
39434;SDS011;30098;51.880;-0.518;2022-10-17T05:33:09;1.30;;;0.70;;
39434;SDS011;30098;51.880;-0.518;2022-10-17T05:35:35;1.58;;;0.68;;
39434;SDS011;30098;51.880;-0.518;2022-10-17T05:38:00;1.48;;;0.60;;
39434;SDS011;30098;51.880;-0.518;2022-10-17T05:40:26;1.50;;;0.65;;
39434;SDS011;30098;51.880;-0.518;2022-10-17T05:42:51;2.35;;;0.70;;
39434;SDS011;30098;51.880;-0.518;2022-10-17T05:45:17;1.42;;;0.70;;
39434;SDS011;30098;51.880;-0.518;2022-10-17T05:47:42;0.80;;;0.60;;
39434;SDS011;30098;51.880;-0.518;2022-10-17T05:50:08;1.48;;;0.60;;
39434;SDS011;30098;51.880;-0.518;2022-10-17T05:52:34;1.23;;;0.60;;
39434;SDS011;30098;51.880;-0.518;2022-10-17T05:55:00;1.55;;;0.63;;
39434;SDS011;30098;51.880;-0.518;2022-10-17T05:57:25;2.00;;;0.80;;
39434;SDS011;30098;51.880;-0.518;2022-10-17T05:59:51;1.08;;;0.60;;
39434;SDS011;30098;51.880;-0.518;2022-10-17T06:02:17;1.15;;;0.60;;
39434;SDS011;30098;51.880;-0.518;2022-10-17T06:04:43;1.70;;;0.60;;
39434;SDS011;30098;51.880;-0.518;2022-10-17T06:07:10;1.65;;;0.60;;
39434;SDS011;30098;51.880;-0.518;2022-10-17T06:09:36;2.15;;;0.82;;
39434;SDS011;30098;51.880;-0.518;2022-10-17T06:12:02;1.02;;;0.60;;
39434;SDS011;30098;51.880;-0.518;2022-10-17T06:14:27;1.98;;;0.80;;
39434;SDS011;30098;51.880;-0.518;2022-10-17T06:16:53;1.73;;;0.70;;
39434;SDS011;30098;51.880;-0.518;2022-10-17T06:19:18;1.95;;;0.80;;
39434;SDS011;30098;51.880;-0.518;2022-10-17T06:21:44;1.80;;;0.65;;
39434;SDS011;30098;51.880;-0.518;2022-10-17T06:24:09;1.15;;;0.60;;
39434;SDS011;30098;51.880;-0.518;2022-10-17T06:26:35;1.70;;;0.80;;
39434;SDS011;30098;51.880;-0.518;2022-10-17T06:29:00;1.25;;;0.52;;
39434;SDS011;30098;51.880;-0.518;2022-10-17T06:31:26;1.77;;;0.60;;
39434;SDS011;30098;51.880;-0.518;2022-10-17T06:33:51;1.52;;;0.77;;
39434;SDS011;30098;51.880;-0.518;2022-10-17T06:36:17;1.83;;;0.70;;
39434;SDS011;30098;51.880;-0.518;2022-10-17T06:38:43;2.00;;;0.60;;
39434;SDS011;30098;51.880;-0.518;2022-10-17T06:41:09;1.65;;;0.70;;
39434;SDS011;30098;51.880;-0.518;2022-10-17T06:43:38;1.95;;;0.70;;
39434;SDS011;30098;51.880;-0.518;2022-10-17T06:46:05;1.77;;;0.60;;
39434;SDS011;30098;51.880;-0.518;2022-10-17T06:48:31;1.85;;;0.85;;
39434;SDS011;30098;51.880;-0.518;2022-10-17T06:50:57;2.05;;;0.85;;
39434;SDS011;30098;51.880;-0.518;2022-10-17T06:53:29;1.40;;;0.60;;
39434;SDS011;30098;51.880;-0.518;2022-10-17T06:55:56;1.42;;;0.60;;
39434;SDS011;30098;51.880;-0.518;2022-10-17T07:00:56;1.67;;;0.63;;
39434;SDS011;30098;51.880;-0.518;2022-10-17T07:03:26;1.42;;;0.75;;
39434;SDS011;30098;51.880;-0.518;2022-10-17T07:05:52;1.27;;;0.60;;
39434;SDS011;30098;51.880;-0.518;2022-10-17T07:08:18;2.53;;;0.80;;
39434;SDS011;30098;51.880;-0.518;2022-10-17T07:10:43;1.65;;;0.70;;
39434;SDS011;30098;51.880;-0.518;2022-10-17T07:13:09;1.42;;;0.60;;
39434;SDS011;30098;51.880;-0.518;2022-10-17T07:15:35;1.35;;;0.60;;
39434;SDS011;30098;51.880;-0.518;2022-10-17T07:18:02;2.90;;;0.80;;
39434;SDS011;30098;51.880;-0.518;2022-10-17T07:20:27;1.83;;;0.70;;
39434;SDS011;30098;51.880;-0.518;2022-10-17T07:22:53;1.60;;;0.50;;
39434;SDS011;30098;51.880;-0.518;2022-10-17T07:25:19;2.95;;;0.88;;
39434;SDS011;30098;51.880;-0.518;2022-10-17T07:27:44;1.30;;;0.63;;
39434;SDS011;30098;51.880;-0.518;2022-10-17T07:30:10;1.00;;;0.50;;
39434;SDS011;30098;51.880;-0.518;2022-10-17T07:32:35;2.03;;;0.70;;
39434;SDS011;30098;51.880;-0.518;2022-10-17T07:35:01;1.98;;;0.60;;
39434;SDS011;30098;51.880;-0.518;2022-10-17T07:37:27;3.05;;;0.80;;
39434;SDS011;30098;51.880;-0.518;2022-10-17T07:39:53;2.90;;;0.75;;
39434;SDS011;30098;51.880;-0.518;2022-10-17T07:42:18;1.35;;;0.70;;
39434;SDS011;30098;51.880;-0.518;2022-10-17T07:44:44;1.27;;;0.60;;
39434;SDS011;30098;51.880;-0.518;2022-10-17T07:47:11;1.73;;;0.60;;
39434;SDS011;30098;51.880;-0.518;2022-10-17T07:49:37;2.50;;;0.80;;
39434;SDS011;30098;51.880;-0.518;2022-10-17T07:52:08;1.95;;;0.70;;
39434;SDS011;30098;51.880;-0.518;2022-10-17T07:54:34;1.55;;;0.75;;
39434;SDS011;30098;51.880;-0.518;2022-10-17T07:57:00;2.42;;;0.80;;
39434;SDS011;30098;51.880;-0.518;2022-10-17T07:59:25;3.60;;;0.68;;
39434;SDS011;30098;51.880;-0.518;2022-10-17T08:01:53;4.53;;;1.02;;
39434;SDS011;30098;51.880;-0.518;2022-10-17T08:04:20;4.82;;;1.38;;
39434;SDS011;30098;51.880;-0.518;2022-10-17T08:06:45;7.30;;;1.40;;
39434;SDS011;30098;51.880;-0.518;2022-10-17T08:09:10;5.82;;;1.33;;
39434;SDS011;30098;51.880;-0.518;2022-10-17T08:11:36;5.18;;;1.55;;
39434;SDS011;30098;51.880;-0.518;2022-10-17T08:14:02;5.57;;;1.48;;
39434;SDS011;30098;51.880;-0.518;2022-10-17T08:16:28;7.93;;;1.67;;
39434;SDS011;30098;51.880;-0.518;2022-10-17T08:18:53;5.22;;;1.50;;
39434;SDS011;30098;51.880;-0.518;2022-10-17T08:21:19;5.25;;;1.25;;
39434;SDS011;30098;51.880;-0.518;2022-10-17T08:23:44;10.98;;;2.72;;
39434;SDS011;30098;51.880;-0.518;2022-10-17T08:26:10;10.48;;;2.58;;
39434;SDS011;30098;51.880;-0.518;2022-10-17T08:28:37;8.32;;;2.30;;
39434;SDS011;30098;51.880;-0.518;2022-10-17T08:31:08;13.15;;;2.40;;
39434;SDS011;30098;51.880;-0.518;2022-10-17T08:33:35;10.25;;;2.58;;
39434;SDS011;30098;51.880;-0.518;2022-10-17T08:36:02;12.05;;;2.70;;
39434;SDS011;30098;51.880;-0.518;2022-10-17T08:38:29;10.30;;;2.28;;
39434;SDS011;30098;51.880;-0.518;2022-10-17T08:40:56;9.00;;;2.20;;
39434;SDS011;30098;51.880;-0.518;2022-10-17T08:46:12;9.02;;;2.60;;
39434;SDS011;30098;51.880;-0.518;2022-10-17T08:48:39;15.35;;;3.13;;
39434;SDS011;30098;51.880;-0.518;2022-10-17T08:51:23;10.82;;;2.58;;
39434;SDS011;30098;51.880;-0.518;2022-10-17T08:54:13;17.70;;;3.58;;
39434;SDS011;30098;51.880;-0.518;2022-10-17T08:56:44;11.20;;;2.80;;
39434;SDS011;30098;51.880;-0.518;2022-10-17T08:59:16;15.52;;;3.17;;
39434;SDS011;30098;51.880;-0.518;2022-10-17T09:01:45;11.88;;;2.78;;
39434;SDS011;30098;51.880;-0.518;2022-10-17T09:15:28;11.45;;;2.50;;
39434;SDS011;30098;51.880;-0.518;2022-10-17T09:21:08;14.02;;;2.92;;
39434;SDS011;30098;51.880;-0.518;2022-10-17T09:23:44;12.68;;;3.10;;
39434;SDS011;30098;51.880;-0.518;2022-10-17T09:26:14;11.65;;;2.80;;
39434;SDS011;30098;51.880;-0.518;2022-10-17T09:28:41;10.82;;;2.88;;
39434;SDS011;30098;51.880;-0.518;2022-10-17T09:33:44;14.55;;;3.47;;
39434;SDS011;30098;51.880;-0.518;2022-10-17T09:38:46;9.32;;;2.58;;
39434;SDS011;30098;51.880;-0.518;2022-10-17T09:41:27;13.90;;;3.30;;
39434;SDS011;30098;51.880;-0.518;2022-10-17T09:44:06;7.85;;;2.25;;
39434;SDS011;30098;51.880;-0.518;2022-10-17T09:46:38;8.70;;;2.60;;
39434;SDS011;30098;51.880;-0.518;2022-10-17T09:49:09;14.48;;;2.70;;
39434;SDS011;30098;51.880;-0.518;2022-10-17T09:51:39;10.90;;;3.17;;
39434;SDS011;30098;51.880;-0.518;2022-10-17T09:54:22;12.13;;;3.00;;
39434;SDS011;30098;51.880;-0.518;2022-10-17T09:56:57;13.52;;;3.70;;
39434;SDS011;30098;51.880;-0.518;2022-10-17T09:59:35;13.88;;;3.45;;
39434;SDS011;30098;51.880;-0.518;2022-10-17T10:02:18;12.40;;;3.30;;
39434;SDS011;30098;51.880;-0.518;2022-10-17T10:07:17;13.40;;;2.80;;
39434;SDS011;30098;51.880;-0.518;2022-10-17T10:09:45;13.38;;;2.97;;
39434;SDS011;30098;51.880;-0.518;2022-10-17T10:14:43;9.95;;;2.47;;
39434;SDS011;30098;51.880;-0.518;2022-10-17T10:20:25;10.10;;;2.40;;
39434;SDS011;30098;51.880;-0.518;2022-10-17T10:23:06;12.95;;;2.90;;
39434;SDS011;30098;51.880;-0.518;2022-10-17T10:25:37;12.00;;;2.85;;
39434;SDS011;30098;51.880;-0.518;2022-10-17T10:28:13;10.38;;;2.60;;
39434;SDS011;30098;51.880;-0.518;2022-10-17T10:30:44;11.60;;;2.45;;
39434;SDS011;30098;51.880;-0.518;2022-10-17T10:33:12;8.32;;;2.60;;
39434;SDS011;30098;51.880;-0.518;2022-10-17T10:35:37;12.85;;;2.80;;
39434;SDS011;30098;51.880;-0.518;2022-10-17T10:38:07;9.88;;;2.35;;
39434;SDS011;30098;51.880;-0.518;2022-10-17T10:40:44;11.30;;;2.42;;
39434;SDS011;30098;51.880;-0.518;2022-10-17T10:46:20;7.70;;;2.22;;
39434;SDS011;30098;51.880;-0.518;2022-10-17T10:48:49;8.90;;;2.22;;
39434;SDS011;30098;51.880;-0.518;2022-10-17T10:51:30;12.13;;;2.50;;
39434;SDS011;30098;51.880;-0.518;2022-10-17T10:54:03;7.07;;;1.80;;
39434;SDS011;30098;51.880;-0.518;2022-10-17T10:56:55;8.55;;;2.05;;
39434;SDS011;30098;51.880;-0.518;2022-10-17T10:59:45;7.18;;;1.88;;
39434;SDS011;30098;51.880;-0.518;2022-10-17T11:05:24;10.70;;;2.25;;
39434;SDS011;30098;51.880;-0.518;2022-10-17T11:10:59;9.50;;;2.63;;
39434;SDS011;30098;51.880;-0.518;2022-10-17T11:13:29;14.60;;;2.88;;
39434;SDS011;30098;51.880;-0.518;2022-10-17T11:21:59;11.77;;;2.95;;
39434;SDS011;30098;51.880;-0.518;2022-10-17T11:24:48;11.30;;;2.63;;
39434;SDS011;30098;51.880;-0.518;2022-10-17T11:27:33;15.30;;;2.78;;
39434;SDS011;30098;51.880;-0.518;2022-10-17T11:29:59;11.95;;;2.70;;
39434;SDS011;30098;51.880;-0.518;2022-10-17T11:32:29;12.45;;;3.05;;
39434;SDS011;30098;51.880;-0.518;2022-10-17T11:35:02;12.77;;;3.28;;
39434;SDS011;30098;51.880;-0.518;2022-10-17T11:37:36;12.82;;;2.72;;
39434;SDS011;30098;51.880;-0.518;2022-10-17T11:40:07;9.88;;;2.47;;
39434;SDS011;30098;51.880;-0.518;2022-10-17T11:42:49;14.82;;;3.40;;
39434;SDS011;30098;51.880;-0.518;2022-10-17T11:45:21;10.40;;;2.75;;
39434;SDS011;30098;51.880;-0.518;2022-10-17T11:47:54;10.88;;;2.35;;
39434;SDS011;30098;51.880;-0.518;2022-10-17T11:50:26;8.48;;;2.38;;
39434;SDS011;30098;51.880;-0.518;2022-10-17T11:52:56;9.50;;;2.30;;
39434;SDS011;30098;51.880;-0.518;2022-10-17T11:55:28;9.50;;;2.40;;
39434;SDS011;30098;51.880;-0.518;2022-10-17T12:05:58;8.15;;;2.22;;
39434;SDS011;30098;51.880;-0.518;2022-10-17T12:11:13;11.35;;;2.47;;
39434;SDS011;30098;51.880;-0.518;2022-10-17T12:13:47;8.00;;;2.00;;
39434;SDS011;30098;51.880;-0.518;2022-10-17T12:18:48;9.13;;;2.13;;
39434;SDS011;30098;51.880;-0.518;2022-10-17T12:21:17;6.20;;;2.13;;
39434;SDS011;30098;51.880;-0.518;2022-10-17T12:23:50;7.40;;;2.17;;
39434;SDS011;30098;51.880;-0.518;2022-10-17T12:26:24;12.70;;;2.83;;
39434;SDS011;30098;51.880;-0.518;2022-10-17T12:28:51;10.60;;;2.20;;
39434;SDS011;30098;51.880;-0.518;2022-10-17T12:33:54;10.87;;;2.37;;
39434;SDS011;30098;51.880;-0.518;2022-10-17T12:38:48;14.73;;;3.20;;
39434;SDS011;30098;51.880;-0.518;2022-10-17T12:46:51;10.32;;;2.75;;
39434;SDS011;30098;51.880;-0.518;2022-10-17T12:49:44;12.57;;;2.38;;
39434;SDS011;30098;51.880;-0.518;2022-10-17T12:52:21;11.13;;;2.80;;
39434;SDS011;30098;51.880;-0.518;2022-10-17T12:54:50;8.23;;;2.53;;
39434;SDS011;30098;51.880;-0.518;2022-10-17T12:59:47;7.95;;;2.00;;
39434;SDS011;30098;51.880;-0.518;2022-10-17T13:02:18;8.02;;;2.00;;
39434;SDS011;30098;51.880;-0.518;2022-10-17T13:04:46;7.22;;;2.00;;
39434;SDS011;30098;51.880;-0.518;2022-10-17T13:07:20;11.35;;;2.28;;
39434;SDS011;30098;51.880;-0.518;2022-10-17T13:09:47;8.40;;;2.20;;
39434;SDS011;30098;51.880;-0.518;2022-10-17T13:12:17;9.45;;;2.05;;
39434;SDS011;30098;51.880;-0.518;2022-10-17T13:14:47;4.68;;;1.60;;
39434;SDS011;30098;51.880;-0.518;2022-10-17T13:17:24;6.10;;;1.38;;
39434;SDS011;30098;51.880;-0.518;2022-10-17T13:19:51;11.02;;;2.20;;
39434;SDS011;30098;51.880;-0.518;2022-10-17T13:22:23;4.88;;;1.65;;
39434;SDS011;30098;51.880;-0.518;2022-10-17T13:24:50;6.00;;;1.80;;
39434;SDS011;30098;51.880;-0.518;2022-10-17T13:29:54;9.90;;;2.00;;
39434;SDS011;30098;51.880;-0.518;2022-10-17T13:32:21;8.02;;;1.50;;
39434;SDS011;30098;51.880;-0.518;2022-10-17T13:35:08;8.85;;;1.65;;
39434;SDS011;30098;51.880;-0.518;2022-10-17T13:37:36;8.57;;;1.77;;
39434;SDS011;30098;51.880;-0.518;2022-10-17T13:40:04;11.43;;;2.20;;
39434;SDS011;30098;51.880;-0.518;2022-10-17T13:42:35;4.82;;;1.42;;
39434;SDS011;30098;51.880;-0.518;2022-10-17T13:45:03;8.15;;;1.83;;
39434;SDS011;30098;51.880;-0.518;2022-10-17T13:47:38;4.75;;;1.50;;
39434;SDS011;30098;51.880;-0.518;2022-10-17T13:50:05;9.85;;;1.60;;
39434;SDS011;30098;51.880;-0.518;2022-10-17T13:52:31;11.90;;;2.75;;
39434;SDS011;30098;51.880;-0.518;2022-10-17T13:55:13;15.65;;;2.75;;
39434;SDS011;30098;51.880;-0.518;2022-10-17T13:57:41;12.80;;;2.63;;
39434;SDS011;30098;51.880;-0.518;2022-10-17T14:00:10;9.02;;;1.92;;
39434;SDS011;30098;51.880;-0.518;2022-10-17T14:02:44;8.02;;;2.20;;
39434;SDS011;30098;51.880;-0.518;2022-10-17T14:05:12;7.82;;;2.33;;
39434;SDS011;30098;51.880;-0.518;2022-10-17T14:07:39;7.75;;;1.70;;
39434;SDS011;30098;51.880;-0.518;2022-10-17T14:10:17;6.40;;;1.85;;
39434;SDS011;30098;51.880;-0.518;2022-10-17T14:12:45;9.43;;;2.25;;
39434;SDS011;30098;51.880;-0.518;2022-10-17T14:15:12;7.47;;;1.80;;
39434;SDS011;30098;51.880;-0.518;2022-10-17T14:17:40;10.38;;;2.30;;
39434;SDS011;30098;51.880;-0.518;2022-10-17T14:20:15;7.30;;;2.05;;
39434;SDS011;30098;51.880;-0.518;2022-10-17T14:22:42;7.28;;;1.70;;
39434;SDS011;30098;51.880;-0.518;2022-10-17T14:33:04;6.50;;;1.45;;
39434;SDS011;30098;51.880;-0.518;2022-10-17T14:35:32;6.80;;;1.70;;
39434;SDS011;30098;51.880;-0.518;2022-10-17T14:38:02;6.20;;;1.25;;
39434;SDS011;30098;51.880;-0.518;2022-10-17T14:40:30;9.85;;;1.70;;
39434;SDS011;30098;51.880;-0.518;2022-10-17T14:42:57;5.30;;;1.25;;
39434;SDS011;30098;51.880;-0.518;2022-10-17T14:45:26;6.53;;;1.10;;
39434;SDS011;30098;51.880;-0.518;2022-10-17T14:47:54;5.38;;;1.60;;
39434;SDS011;30098;51.880;-0.518;2022-10-17T14:50:26;6.32;;;1.33;;
39434;SDS011;30098;51.880;-0.518;2022-10-17T14:52:59;8.43;;;1.90;;
39434;SDS011;30098;51.880;-0.518;2022-10-17T14:55:29;5.18;;;1.65;;
39434;SDS011;30098;51.880;-0.518;2022-10-17T14:57:55;7.78;;;1.85;;
39434;SDS011;30098;51.880;-0.518;2022-10-17T15:00:21;5.38;;;1.38;;
39434;SDS011;30098;51.880;-0.518;2022-10-17T15:02:48;10.30;;;1.75;;
39434;SDS011;30098;51.880;-0.518;2022-10-17T15:05:15;5.53;;;1.60;;
39434;SDS011;30098;51.880;-0.518;2022-10-17T15:07:42;10.90;;;2.28;;
39434;SDS011;30098;51.880;-0.518;2022-10-17T15:10:24;9.15;;;2.38;;
39434;SDS011;30098;51.880;-0.518;2022-10-17T15:12:54;7.00;;;1.70;;
39434;SDS011;30098;51.880;-0.518;2022-10-17T15:15:20;8.15;;;1.60;;
39434;SDS011;30098;51.880;-0.518;2022-10-17T15:17:45;10.38;;;1.88;;
39434;SDS011;30098;51.880;-0.518;2022-10-17T15:20:11;7.82;;;1.85;;
39434;SDS011;30098;51.880;-0.518;2022-10-17T15:22:40;14.73;;;3.00;;
39434;SDS011;30098;51.880;-0.518;2022-10-17T15:25:05;5.65;;;1.55;;
39434;SDS011;30098;51.880;-0.518;2022-10-17T15:27:31;19.10;;;3.75;;
39434;SDS011;30098;51.880;-0.518;2022-10-17T15:29:57;10.45;;;2.13;;
39434;SDS011;30098;51.880;-0.518;2022-10-17T15:32:22;10.38;;;2.13;;
39434;SDS011;30098;51.880;-0.518;2022-10-17T15:34:48;7.90;;;1.90;;
39434;SDS011;30098;51.880;-0.518;2022-10-17T15:37:15;8.60;;;2.20;;
39434;SDS011;30098;51.880;-0.518;2022-10-17T15:39:49;9.43;;;1.95;;
39434;SDS011;30098;51.880;-0.518;2022-10-17T15:42:18;12.27;;;1.80;;
39434;SDS011;30098;51.880;-0.518;2022-10-17T15:44:46;9.15;;;1.90;;
39434;SDS011;30098;51.880;-0.518;2022-10-17T15:47:23;6.22;;;1.60;;
39434;SDS011;30098;51.880;-0.518;2022-10-17T15:50:00;9.35;;;1.90;;
39434;SDS011;30098;51.880;-0.518;2022-10-17T15:52:26;6.95;;;1.90;;
39434;SDS011;30098;51.880;-0.518;2022-10-17T15:54:52;10.13;;;2.50;;
39434;SDS011;30098;51.880;-0.518;2022-10-17T15:57:23;18.52;;;3.65;;
39434;SDS011;30098;51.880;-0.518;2022-10-17T15:59:51;9.38;;;2.65;;
39434;SDS011;30098;51.880;-0.518;2022-10-17T16:02:19;8.05;;;2.00;;
39434;SDS011;30098;51.880;-0.518;2022-10-17T16:04:46;10.00;;;2.13;;
39434;SDS011;30098;51.880;-0.518;2022-10-17T16:07:12;10.50;;;1.98;;
39434;SDS011;30098;51.880;-0.518;2022-10-17T16:09:38;8.65;;;2.17;;
39434;SDS011;30098;51.880;-0.518;2022-10-17T16:12:04;7.68;;;1.90;;
39434;SDS011;30098;51.880;-0.518;2022-10-17T16:14:34;6.75;;;1.88;;
39434;SDS011;30098;51.880;-0.518;2022-10-17T16:16:59;7.40;;;2.10;;
39434;SDS011;30098;51.880;-0.518;2022-10-17T16:19:25;6.28;;;1.80;;
39434;SDS011;30098;51.880;-0.518;2022-10-17T16:21:54;6.97;;;1.90;;
39434;SDS011;30098;51.880;-0.518;2022-10-17T16:24:20;5.25;;;1.60;;
39434;SDS011;30098;51.880;-0.518;2022-10-17T16:26:46;8.85;;;1.83;;
39434;SDS011;30098;51.880;-0.518;2022-10-17T16:29:11;5.75;;;1.77;;
39434;SDS011;30098;51.880;-0.518;2022-10-17T16:31:39;9.75;;;1.90;;
39434;SDS011;30098;51.880;-0.518;2022-10-17T16:34:20;8.07;;;1.80;;
39434;SDS011;30098;51.880;-0.518;2022-10-17T16:36:45;6.53;;;1.60;;
39434;SDS011;30098;51.880;-0.518;2022-10-17T16:39:11;8.00;;;1.92;;
39434;SDS011;30098;51.880;-0.518;2022-10-17T16:41:37;7.00;;;1.95;;
39434;SDS011;30098;51.880;-0.518;2022-10-17T16:44:04;6.57;;;1.73;;
39434;SDS011;30098;51.880;-0.518;2022-10-17T16:46:32;6.47;;;1.55;;
39434;SDS011;30098;51.880;-0.518;2022-10-17T16:49:00;6.88;;;1.70;;
39434;SDS011;30098;51.880;-0.518;2022-10-17T16:51:25;6.18;;;1.60;;
39434;SDS011;30098;51.880;-0.518;2022-10-17T16:53:53;5.00;;;1.70;;